Time;durP1;ratioP1;P1;durP2;ratioP2;P2;SDS_P1;SDS_P2;PMS_P1;PMS_P2;Temp;Humidity;BMP_temperature;BMP_pressure;BME280_temperature;BME280_humidity;BME280_pressure;Samples;Min_cycle;Max_cycle;Signal;HPM_P1;HPM_P2
2022/07/28 00:01:04;;;;;;;4.30;2.38;;;;;;;17.43;53.04;100167.66;5056077;28;20056;-59
2022/07/28 00:03:51;;;;;;;5.57;2.30;;;;;;;17.43;53.02;100159.78;5070455;28;20056;-61
2022/07/28 00:06:35;;;;;;;3.95;2.00;;;;;;;17.44;52.97;100158.03;5070264;28;20056;-60
2022/07/28 00:09:19;;;;;;;5.40;2.60;;;;;;;17.43;53.08;100159.78;5069767;28;20048;-62
2022/07/28 00:12:06;;;;;;;3.25;1.85;;;;;;;17.44;53.07;100158.03;5056839;28;20176;-62
2022/07/28 00:14:50;;;;;;;4.65;2.50;;;;;;;17.41;53.18;100158.94;5070189;28;20043;-62
2022/07/28 00:17:36;;;;;;;2.50;1.73;;;;;;;17.41;53.23;100151.06;5056771;28;20076;-61
2022/07/28 00:20:21;;;;;;;3.05;1.98;;;;;;;17.40;52.91;100148.44;5056743;28;20043;-61
2022/07/28 00:23:04;;;;;;;7.93;2.03;;;;;;;17.38;53.06;100155.44;5056910;28;20404;-61
2022/07/28 00:25:48;;;;;;;5.20;2.08;;;;;;;17.38;53.35;100147.59;5056559;28;20419;-61
2022/07/28 00:28:32;;;;;;;4.30;2.15;;;;;;;17.35;53.23;100146.78;5056512;28;20047;-61
2022/07/28 00:31:17;;;;;;;6.72;2.20;;;;;;;17.34;53.43;100142.41;5056801;28;20087;-61
2022/07/28 00:34:00;;;;;;;5.70;2.33;;;;;;;17.34;53.36;100141.53;5056446;28;20459;-62
2022/07/28 00:36:47;;;;;;;3.70;2.50;;;;;;;17.34;53.43;100142.41;5056267;28;20408;-60
2022/07/28 00:39:31;;;;;;;3.08;1.98;;;;;;;17.34;53.41;100137.16;5056530;28;20522;-59
2022/07/28 00:42:20;;;;;;;7.03;2.17;;;;;;;17.35;53.36;100143.25;5056634;28;20183;-59
2022/07/28 00:45:09;;;;;;;3.25;2.13;;;;;;;17.33;53.39;100142.41;5055301;28;20155;-59
2022/07/28 00:47:53;;;;;;;3.67;2.22;;;;;;;17.31;53.51;100131.06;5055925;28;20117;-60
2022/07/28 00:50:38;;;;;;;4.65;1.95;;;;;;;17.31;53.50;100131.97;5056226;28;20110;-60
2022/07/28 00:53:28;;;;;;;7.65;3.33;;;;;;;17.31;53.58;100137.19;5069543;28;20052;-60
2022/07/28 00:56:16;;;;;;;4.80;2.50;;;;;;;17.32;53.72;100133.69;5056228;28;20051;-60
2022/07/28 00:59:03;;;;;;;3.47;2.33;;;;;;;17.31;53.62;100128.44;5069473;28;20056;-60
2022/07/28 01:01:50;;;;;;;5.65;2.28;;;;;;;17.31;53.38;100131.06;5055266;28;20079;-59
2022/07/28 01:04:34;;;;;;;6.15;2.53;;;;;;;17.29;53.67;100119.75;5069317;28;20047;-60
2022/07/28 01:07:31;;;;;;;8.35;2.83;;;;;;;17.28;53.69;100129.38;5069192;28;20087;-60
2022/07/28 01:10:39;;;;;;;9.35;2.20;;;;;;;17.26;53.60;100125.88;5054974;28;20102;-59
2022/07/28 01:13:35;;;;;;;10.88;2.17;;;;;;;17.25;53.59;100128.53;5055009;28;20130;-60
2022/07/28 01:16:25;;;;;;;4.68;2.38;;;;;;;17.24;53.89;100117.19;5055419;28;20047;-59
2022/07/28 01:19:24;;;;;;;3.72;2.53;;;;;;;17.26;53.70;100115.41;5055355;28;20091;-60
2022/07/28 01:22:11;;;;;;;7.72;2.13;;;;;;;17.24;53.93;100121.56;5055490;28;20075;-60
2022/07/28 01:25:40;;;;;;;8.20;2.55;;;;;;;17.22;53.99;100123.31;5068762;28;20079;-62
2022/07/28 01:28:27;;;;;;;4.93;1.92;;;;;;;17.22;53.85;100118.94;5013485;28;20060;-61
2022/07/28 01:31:17;;;;;;;4.55;2.20;;;;;;;17.22;54.03;100124.19;5055688;28;20048;-61
2022/07/28 01:34:09;;;;;;;6.95;2.53;;;;;;;17.20;54.09;100126.81;5054451;28;20044;-61
2022/07/28 01:37:03;;;;;;;4.32;1.80;;;;;;;17.18;54.07;100119.88;5054462;28;20092;-61
2022/07/28 01:39:53;;;;;;;9.05;3.03;;;;;;;17.18;54.01;100119.88;5055333;28;20075;-61
2022/07/28 01:42:50;;;;;;;6.63;2.38;;;;;;;17.17;54.09;100107.66;5054375;28;20122;-61
2022/07/28 01:45:36;;;;;;;7.30;2.35;;;;;;;17.15;54.18;100106.81;5053901;28;20183;-61
2022/07/28 01:48:23;;;;;;;7.18;1.83;;;;;;;17.13;54.22;100111.19;5054738;28;20047;-61
2022/07/28 01:51:08;;;;;;;3.50;1.85;;;;;;;17.13;54.18;100108.56;5068142;28;20400;-61
2022/07/28 01:53:57;;;;;;;7.85;2.45;;;;;;;17.11;54.14;100107.72;5055011;28;20052;-61
2022/07/28 01:56:45;;;;;;;5.35;2.47;;;;;;;17.10;54.23;100108.59;5054190;28;20080;-60
2022/07/28 01:59:30;;;;;;;4.90;2.28;;;;;;;17.10;54.17;100105.97;5068247;28;20079;-61
2022/07/28 02:02:20;;;;;;;6.10;2.50;;;;;;;17.09;54.35;100104.25;5067675;28;20056;-61
2022/07/28 02:05:06;;;;;;;6.50;2.60;;;;;;;17.08;54.25;100098.16;5054008;28;20044;-60
2022/07/28 02:07:53;;;;;;;4.47;2.05;;;;;;;17.08;54.38;100097.25;5053837;28;20056;-60
2022/07/28 02:10:40;;;;;;;4.38;1.95;;;;;;;17.06;54.55;100094.66;5053917;28;20044;-59
2022/07/28 02:13:25;;;;;;;6.25;2.28;;;;;;;17.05;54.53;100091.16;5067189;28;20100;-60
2022/07/28 02:16:10;;;;;;;;;;;;;;;17.03;54.46;100094.69;5055232;28;20572;-61
2022/07/28 02:18:57;;;;;;;5.00;2.45;;;;;;;17.00;54.27;100085.13;5055148;28;20330;-60
2022/07/28 02:21:46;;;;;;;3.83;2.30;;;;;;;17.01;54.54;100089.50;5067824;28;20051;-62
2022/07/28 02:24:32;;;;;;;7.13;2.80;;;;;;;17.00;54.48;100087.75;5053695;28;20503;-60
2022/07/28 02:27:43;;;;;;;4.28;1.90;;;;;;;16.99;54.44;100080.78;5053765;28;20048;-60
2022/07/28 02:30:45;;;;;;;5.68;2.65;;;;;;;16.96;54.58;100072.94;5053366;28;20105;-60
2022/07/28 02:33:36;;;;;;;5.13;2.03;;;;;;;16.95;54.74;100076.44;5053436;28;20055;-60
2022/07/28 02:36:27;;;;;;;3.63;2.55;;;;;;;16.95;54.68;100073.81;5054446;28;20044;-59
2022/07/28 02:39:36;;;;;;;5.25;3.00;;;;;;;16.93;54.76;100067.72;5053033;28;20056;-60
2022/07/28 02:42:29;;;;;;;7.97;2.58;;;;;;;16.94;54.90;100061.59;5051756;28;20052;-60
2022/07/28 02:45:15;;;;;;;7.07;2.00;;;;;;;16.96;54.75;100061.63;5054193;28;20052;-60
2022/07/28 02:48:04;;;;;;;4.53;2.20;;;;;;;16.94;54.77;100055.50;5053044;28;20043;-60
2022/07/28 02:50:50;;;;;;;6.80;2.28;;;;;;;16.94;54.78;100060.75;5053171;28;20098;-60
2022/07/28 02:53:38;;;;;;;5.43;2.42;;;;;;;16.93;54.78;100059.84;5053236;28;20076;-60
2022/07/28 02:56:24;;;;;;;4.47;2.03;;;;;;;16.93;55.09;100059.84;5053026;28;20052;-60
2022/07/28 02:59:11;;;;;;;6.13;2.67;;;;;;;16.90;54.94;100060.75;5054047;28;20055;-60
2022/07/28 03:01:55;;;;;;;6.90;2.50;;;;;;;16.90;54.95;100055.53;5067019;28;20063;-60
2022/07/28 03:04:57;;;;;;;7.25;2.45;;;;;;;16.90;55.01;100060.75;5052940;28;20048;-60
2022/07/28 03:07:44;;;;;;;8.57;2.35;;;;;;;16.89;54.89;100060.78;5052965;28;20089;-60
2022/07/28 03:10:29;;;;;;;4.75;2.30;;;;;;;16.88;54.96;100059.06;5066911;28;20044;-60
2022/07/28 03:13:15;;;;;;;7.60;2.55;;;;;;;16.85;55.06;100061.69;5054074;28;20416;-59
2022/07/28 03:16:03;;;;;;;5.13;2.50;;;;;;;16.84;55.15;100071.28;5053521;28;20404;-60
2022/07/28 03:18:50;;;;;;;8.85;3.05;;;;;;;16.84;55.18;100060.81;5052882;28;20514;-60
2022/07/28 03:21:40;;;;;;;8.05;2.60;;;;;;;16.84;55.31;100054.72;5053284;28;20128;-61
2022/07/28 03:24:31;;;;;;;4.65;2.33;;;;;;;16.83;55.14;100050.38;5052726;28;20110;-59
2022/07/28 03:27:32;;;;;;;6.03;2.72;;;;;;;16.81;55.09;100055.63;5052574;28;20095;-61
2022/07/28 03:30:24;;;;;;;6.00;2.45;;;;;;;16.81;55.14;100070.44;5066459;28;20114;-60
2022/07/28 03:33:08;;;;;;;8.40;2.90;;;;;;;16.79;55.28;100065.25;5053276;28;20059;-60
2022/07/28 03:35:56;;;;;;;11.75;2.33;;;;;;;16.79;55.24;100059.13;5053590;28;20048;-61
2022/07/28 03:38:50;;;;;;;10.73;2.47;;;;;;;16.77;55.38;100059.16;5052573;28;20407;-61
2022/07/28 03:41:36;;;;;;;8.18;2.92;;;;;;;16.77;55.39;100059.16;5052340;28;20047;-62
2022/07/28 03:44:22;;;;;;;8.95;2.80;;;;;;;16.76;55.38;100060.03;5066642;28;20102;-62
2022/07/28 03:47:06;;;;;;;6.82;2.85;;;;;;;16.74;55.31;100060.03;5051870;28;20070;-61
2022/07/28 03:49:52;;;;;;;7.75;2.70;;;;;;;16.73;55.33;100062.66;5053353;28;20393;-62
2022/07/28 03:52:39;;;;;;;9.55;3.28;;;;;;;16.72;55.26;100058.31;5053222;28;20523;-61
2022/07/28 03:55:25;;;;;;;9.32;2.33;;;;;;;16.70;55.43;100058.34;5066803;28;20515;-62
2022/07/28 03:58:11;;;;;;;9.55;2.72;;;;;;;16.69;55.37;100053.09;5052397;28;20060;-62
2022/07/28 04:00:56;;;;;;;4.32;2.55;;;;;;;16.69;55.55;100055.72;5053032;28;20095;-63
2022/07/28 04:03:40;;;;;;;4.68;2.50;;;;;;;16.65;55.50;100054.88;5066515;28;20051;-61
2022/07/28 04:06:27;;;;;;;4.85;2.33;;;;;;;16.66;55.50;100053.16;5051993;28;20052;-61
2022/07/28 04:09:11;;;;;;;7.15;2.72;;;;;;;16.63;55.42;100054.03;5052898;28;20048;-60
2022/07/28 04:11:55;;;;;;;6.03;2.33;;;;;;;16.62;55.47;100054.06;5053061;28;20067;-61
2022/07/28 04:14:39;;;;;;;7.55;2.85;;;;;;;16.61;55.47;100053.16;5053227;28;20055;-62
2022/07/28 04:17:23;;;;;;;7.55;2.80;;;;;;;16.62;55.56;100051.44;5053218;28;20048;-59
2022/07/28 04:20:10;;;;;;;5.13;2.40;;;;;;;16.61;55.71;100047.09;5066627;28;20106;-60
2022/07/28 04:22:55;;;;;;;7.47;2.53;;;;;;;16.60;55.50;100054.03;5052222;28;20094;-60
2022/07/28 04:25:41;;;;;;;;;;;;;;;16.58;55.45;100046.22;5053547;28;20163;-59
2022/07/28 04:28:25;;;;;;;12.90;2.72;;;;;;;16.56;55.55;100049.75;5052923;28;19924;-60
2022/07/28 04:31:12;;;;;;;5.45;2.50;;;;;;;16.57;55.61;100041.88;5052702;28;20068;-60
2022/07/28 04:33:56;;;;;;;9.20;2.15;;;;;;;16.56;55.67;100034.91;5051838;28;20052;-62
2022/07/28 04:36:42;;;;;;;5.88;2.28;;;;;;;16.57;55.86;100038.41;5055966;28;20102;-62
2022/07/28 04:39:26;;;;;;;7.43;2.10;;;;;;;16.56;55.61;100045.38;5069996;28;20056;-61
2022/07/28 04:42:10;;;;;;;7.28;2.60;;;;;;;16.56;55.75;100047.13;5069398;28;20547;-61
2022/07/28 04:44:54;;;;;;;;;;;;;;;16.55;55.76;100058.47;5056690;28;20098;-61
2022/07/28 04:47:41;;;;;;;5.80;2.33;;;;;;;16.55;55.88;100053.25;5055308;28;19928;-60
2022/07/28 04:50:31;;;;;;;5.57;1.85;;;;;;;16.56;55.89;100055.81;5055222;28;20550;-61
2022/07/28 04:53:18;;;;;;;7.93;2.40;;;;;;;16.55;55.61;100045.38;5056348;28;20044;-60
2022/07/28 04:56:02;;;;;;;6.28;2.30;;;;;;;16.56;56.01;100047.13;5055939;28;20079;-59
2022/07/28 04:58:46;;;;;;;5.25;2.00;;;;;;;16.54;55.89;100046.28;5056191;28;20051;-61
2022/07/28 05:01:30;;;;;;;5.30;2.70;;;;;;;16.53;55.90;100047.16;5055990;28;20067;-61
2022/07/28 05:04:14;;;;;;;9.68;2.40;;;;;;;16.52;55.88;100048.03;5055961;28;20044;-61
2022/07/28 05:07:01;;;;;;;6.40;2.75;;;;;;;16.51;55.87;100043.66;5056029;28;20056;-61
2022/07/28 05:09:48;;;;;;;11.63;2.95;;;;;;;16.52;55.91;100042.78;5069142;28;20187;-60
2022/07/28 05:12:32;;;;;;;4.78;2.03;;;;;;;16.54;56.04;100057.59;5055791;28;20044;-61
2022/07/28 05:15:19;;;;;;;3.70;1.90;;;;;;;16.52;55.82;100055.88;5055513;28;20052;-61
2022/07/28 05:18:09;;;;;;;4.50;2.20;;;;;;;16.53;55.96;100047.16;5055675;28;20523;-61
2022/07/28 05:20:58;;;;;;;3.60;2.00;;;;;;;16.52;56.10;100046.25;5054846;28;20047;-61
2022/07/28 05:23:42;;;;;;;7.10;2.33;;;;;;;16.52;56.01;100048.03;5054968;28;20106;-61
2022/07/28 05:26:29;;;;;;;7.90;2.40;;;;;;;16.52;56.07;100046.25;5055756;28;20562;-61
2022/07/28 05:29:13;;;;;;;9.43;2.90;;;;;;;16.54;56.13;100048.88;5055009;28;20044;-61
2022/07/28 05:31:57;;;;;;;6.20;2.50;;;;;;;16.54;56.06;100041.03;5055402;28;20044;-61
2022/07/28 05:34:41;;;;;;;9.18;2.50;;;;;;;16.54;56.13;100041.03;5054641;28;20052;-61
2022/07/28 05:37:27;;;;;;;5.22;2.38;;;;;;;16.52;56.19;100041.03;5055767;28;20106;-61
2022/07/28 05:40:14;;;;;;;7.72;3.00;;;;;;;16.52;56.11;100046.25;5055283;28;20506;-61
2022/07/28 05:43:03;;;;;;;6.85;2.45;;;;;;;16.51;56.34;100046.28;5055407;28;20125;-61
2022/07/28 05:45:50;;;;;;;8.57;2.55;;;;;;;16.50;56.32;100045.44;5068277;28;20044;-61
2022/07/28 05:48:34;;;;;;;6.30;2.35;;;;;;;16.51;56.20;100051.53;5055199;28;20523;-61
2022/07/28 05:51:19;;;;;;;;;;;;;;;16.50;56.42;100052.41;5055340;28;20102;-60
2022/07/28 05:54:06;;;;;;;4.05;2.20;;;;;;;16.52;56.27;100050.66;5055178;28;19920;-61
2022/07/28 05:56:52;;;;;;;6.15;2.35;;;;;;;16.54;56.51;100051.50;5054770;28;20403;-61
2022/07/28 05:59:39;;;;;;;8.65;2.33;;;;;;;16.56;56.18;100057.59;5067967;28;20405;-61
2022/07/28 06:02:23;;;;;;;3.50;2.42;;;;;;;16.57;56.17;100056.72;5054462;28;20051;-61
2022/07/28 06:05:07;;;;;;;6.65;2.40;;;;;;;16.58;56.43;100061.91;5054722;28;20099;-61
2022/07/28 06:07:51;;;;;;;3.03;1.90;;;;;;;16.61;56.35;100065.41;5054650;28;20408;-61
2022/07/28 06:13:38;;;;;;;7.75;1.92;;;;;;;16.62;56.45;100065.38;5054507;28;20064;-61
2022/07/28 06:16:25;;;;;;;4.10;2.22;;;;;;;16.64;56.40;100070.59;5054227;28;20051;-61
2022/07/28 06:19:14;;;;;;;10.77;3.30;;;;;;;16.64;56.28;100066.22;5054673;28;20056;-60
2022/07/28 06:21:59;;;;;;;7.70;3.10;;;;;;;16.67;56.45;100068.81;5067537;28;20595;-61
2022/07/28 06:24:43;;;;;;;7.57;2.50;;;;;;;16.68;56.44;100057.47;5054740;28;20132;-61
2022/07/28 06:27:27;;;;;;;9.77;2.33;;;;;;;16.71;56.24;100056.56;5054464;28;20048;-61
2022/07/28 06:30:11;;;;;;;5.53;2.40;;;;;;;16.73;56.49;100053.09;5054235;28;20060;-62
2022/07/28 06:32:58;;;;;;;;;;;;;;;16.73;56.47;100068.78;5054466;28;20063;-61
2022/07/28 06:35:43;;;;;;;15.82;2.75;;;;;;;16.76;56.24;100060.03;5053433;28;19942;-61
2022/07/28 06:38:27;;;;;;;8.57;2.67;;;;;;;16.78;56.47;100053.03;5053451;28;20411;-61
2022/07/28 06:41:14;;;;;;;8.65;3.55;;;;;;;16.79;56.33;100049.53;5054400;28;20090;-61
2022/07/28 06:43:58;;;;;;;7.65;2.50;;;;;;;16.81;56.42;100049.50;5054017;28;20098;-61
2022/07/28 06:46:42;;;;;;;10.63;2.00;;;;;;;16.83;56.45;100050.38;5054275;28;20067;-61
2022/07/28 06:49:26;;;;;;;9.90;3.15;;;;;;;16.83;56.45;100052.97;5053052;28;20122;-61
2022/07/28 06:52:11;;;;;;;31.77;4.47;;;;;;;16.87;56.33;100050.31;5053900;28;20056;-61
2022/07/28 06:54:56;;;;;;;25.15;3.25;;;;;;;16.89;56.19;100052.94;5053669;28;20409;-62
2022/07/28 06:57:44;;;;;;;15.13;2.53;;;;;;;16.90;56.26;100050.28;5053337;28;20595;-61
2022/07/28 07:00:31;;;;;;;10.55;2.42;;;;;;;16.92;56.43;100047.66;5067247;28;20115;-61
2022/07/28 07:03:23;;;;;;;8.93;3.10;;;;;;;16.95;56.28;100047.66;5053338;28;20122;-61
2022/07/28 07:06:11;;;;;;;9.43;3.10;;;;;;;16.96;56.25;100044.16;5053024;28;20047;-61
2022/07/28 07:08:55;;;;;;;11.23;2.38;;;;;;;16.98;55.98;100037.16;5067408;28;20159;-61
2022/07/28 07:11:40;;;;;;;13.35;2.65;;;;;;;16.99;56.03;100033.66;5053464;28;20063;-61
2022/07/28 07:14:27;;;;;;;12.13;2.63;;;;;;;17.02;56.09;100037.97;5054053;28;20080;-61
2022/07/28 07:17:14;;;;;;;4.65;2.03;;;;;;;17.04;55.88;100041.47;5052863;28;20098;-61
2022/07/28 07:20:00;;;;;;;6.35;2.05;;;;;;;17.07;56.00;100030.06;5053275;28;20538;-62
2022/07/28 07:22:51;;;;;;;7.72;2.10;;;;;;;17.08;55.82;100034.44;5053748;28;20120;-60
2022/07/28 07:25:41;;;;;;;5.88;2.33;;;;;;;17.10;55.74;100032.66;5052656;28;20067;-62
2022/07/28 07:28:25;;;;;;;6.00;2.20;;;;;;;17.13;55.87;100032.63;5053531;28;20133;-62
2022/07/28 07:31:11;;;;;;;14.85;2.97;;;;;;;17.16;55.86;100032.59;5053540;28;20060;-60
2022/07/28 07:33:58;;;;;;;9.25;2.40;;;;;;;17.17;55.98;100039.59;5053678;28;20408;-60
2022/07/28 07:36:44;;;;;;;8.48;2.58;;;;;;;17.17;56.19;100037.81;5052588;28;20048;-62
2022/07/28 07:39:31;;;;;;;6.95;2.95;;;;;;;17.20;56.02;100039.56;5052408;28;20463;-61
2022/07/28 07:42:16;;;;;;;5.22;2.08;;;;;;;17.18;55.96;100036.94;5053577;28;20514;-61
2022/07/28 07:45:00;;;;;;;11.23;2.45;;;;;;;17.22;55.80;100043.00;5052290;28;20055;-61
2022/07/28 07:47:46;;;;;;;4.53;1.90;;;;;;;17.22;55.75;100037.75;5053325;28;20154;-61
2022/07/28 07:50:33;;;;;;;5.75;2.10;;;;;;;17.24;56.00;100038.59;5052209;28;20522;-61
2022/07/28 07:53:21;;;;;;;4.72;2.05;;;;;;;17.25;55.84;100032.50;5066524;28;20051;-60
2022/07/28 07:56:08;;;;;;;11.13;2.72;;;;;;;17.26;56.02;100029.00;5053104;28;20052;-59
2022/07/28 07:58:57;;;;;;;10.50;2.50;;;;;;;17.28;55.96;100035.06;5052388;28;20083;-59
2022/07/28 08:01:41;;;;;;;4.68;2.17;;;;;;;17.29;55.83;100035.94;5051947;28;20067;-60
2022/07/28 08:04:26;;;;;;;6.57;2.83;;;;;;;17.31;55.91;100027.19;5066564;28;20044;-59
2022/07/28 08:07:10;;;;;;;4.95;2.13;;;;;;;17.35;55.86;100022.78;5053256;28;20048;-60
2022/07/28 08:09:57;;;;;;;6.63;2.20;;;;;;;17.37;55.75;100021.00;5053265;28;20404;-60
2022/07/28 08:12:44;;;;;;;5.50;2.03;;;;;;;17.40;55.92;100020.09;5070557;28;20100;-60
2022/07/28 08:15:28;;;;;;;8.32;2.60;;;;;;;17.40;55.78;100013.13;5056917;28;20614;-60
2022/07/28 08:18:12;;;;;;;5.93;2.38;;;;;;;17.42;55.65;100018.31;5055970;28;20048;-62
2022/07/28 08:20:56;;;;;;;9.18;2.63;;;;;;;17.45;55.72;100018.28;5056866;28;20048;-62
2022/07/28 08:23:40;;;;;;;10.50;2.60;;;;;;;17.46;55.67;100004.31;5069990;28;20087;-61
2022/07/28 08:26:27;;;;;;;9.80;2.67;;;;;;;17.47;55.59;100004.28;5056503;28;20103;-60
2022/07/28 08:29:17;;;;;;;6.82;2.38;;;;;;;17.49;55.57;100009.50;5069336;28;20044;-61
2022/07/28 08:32:04;;;;;;;7.72;2.53;;;;;;;17.53;55.53;100011.19;5055732;28;20176;-60
2022/07/28 08:34:50;;;;;;;7.55;2.20;;;;;;;17.54;55.71;100006.81;5055748;28;20051;-61
2022/07/28 08:37:38;;;;;;;3.85;2.15;;;;;;;17.56;55.63;100016.38;5056567;28;20055;-60
2022/07/28 08:40:23;;;;;;;6.85;2.47;;;;;;;17.58;55.60;100019.00;5069597;28;20094;-60
2022/07/28 08:43:12;;;;;;;6.20;2.28;;;;;;;17.60;55.63;100007.59;5056532;28;20461;-60
2022/07/28 08:46:03;;;;;;;12.55;2.58;;;;;;;17.62;55.70;100015.44;5069744;28;20124;-60
2022/07/28 08:48:49;;;;;;;11.68;3.22;;;;;;;17.62;55.44;100018.94;5069506;28;20171;-61
2022/07/28 08:51:36;;;;;;;8.63;2.08;;;;;;;17.63;55.54;100011.94;5055340;28;20136;-63
2022/07/28 08:54:25;;;;;;;6.93;2.63;;;;;;;17.65;55.57;100007.53;5055408;28;20068;-63
2022/07/28 08:57:36;;;;;;;6.35;2.08;;;;;;;17.67;55.60;100003.16;5069528;28;20044;-62
2022/07/28 09:00:21;;;;;;;15.43;2.97;;;;;;;17.70;55.70;100005.72;5055588;28;20106;-61
2022/07/28 09:03:05;;;;;;;7.15;2.38;;;;;;;17.71;55.63;100007.47;5054710;28;20098;-61
2022/07/28 09:05:53;;;;;;;6.75;2.20;;;;;;;17.73;55.37;99991.72;5055093;28;20055;-60
2022/07/28 09:08:37;;;;;;;8.23;2.47;;;;;;;17.74;55.57;99991.69;5055172;28;20040;-61
2022/07/28 09:11:21;;;;;;;6.88;2.45;;;;;;;17.75;55.63;99990.78;5068821;28;20102;-61
2022/07/28 09:14:05;;;;;;;6.90;2.25;;;;;;;17.78;55.82;99992.50;5055722;28;20052;-61
2022/07/28 09:16:49;;;;;;;5.55;2.15;;;;;;;17.78;55.27;99989.91;5055948;28;20136;-60
2022/07/28 09:19:33;;;;;;;7.80;2.08;;;;;;;17.82;55.35;99986.34;5055363;28;20102;-61
2022/07/28 09:22:20;;;;;;;9.02;2.20;;;;;;;17.82;55.22;99986.34;5055283;28;20107;-61
2022/07/28 09:25:17;;;;;;;6.97;2.35;;;;;;;17.84;55.06;99978.44;5054776;28;20511;-61
2022/07/28 09:28:15;;;;;;;13.68;3.45;;;;;;;17.84;55.20;99988.94;5068821;28;20099;-61
2022/07/28 09:31:08;;;;;;;20.60;2.45;;;;;;;17.87;55.24;99987.13;5055433;28;20068;-61
2022/07/28 09:33:55;;;;;;;9.35;2.20;;;;;;;17.88;55.22;99988.00;5069065;28;20503;-61
2022/07/28 09:36:40;;;;;;;7.00;2.15;;;;;;;17.89;55.18;99982.72;5055228;28;20570;-61
2022/07/28 09:39:32;;;;;;;7.95;2.22;;;;;;;17.90;55.03;99978.38;5054676;28;20136;-61
2022/07/28 09:42:20;;;;;;;5.88;2.55;;;;;;;17.90;54.97;99973.97;5054324;28;20064;-61
2022/07/28 09:45:07;;;;;;;16.73;2.50;;;;;;;17.92;55.20;99977.44;5068404;28;20103;-61
2022/07/28 09:48:12;;;;;;;6.32;2.53;;;;;;;17.94;55.12;99983.53;5054047;28;20051;-61
2022/07/28 09:51:10;;;;;;;;;;;;;;;17.94;54.94;99986.16;5068723;28;20051;-61
2022/07/28 09:54:16;;;;;;;8.32;1.92;;;;;;;17.95;55.03;99977.41;5055278;28;19987;-61
2022/07/28 09:57:03;;;;;;;8.52;2.60;;;;;;;17.96;55.06;99984.38;5055046;28;20099;-61
2022/07/28 09:59:47;;;;;;;9.55;2.08;;;;;;;17.99;54.73;99982.59;5055194;28;20068;-61
2022/07/28 10:02:34;;;;;;;39.90;3.15;;;;;;;18.00;54.81;99979.09;5055103;28;20082;-61
2022/07/28 10:05:20;;;;;;;8.38;2.15;;;;;;;18.01;54.82;99967.72;5054898;28;20170;-61
2022/07/28 10:08:05;;;;;;;9.30;2.58;;;;;;;18.01;54.71;99973.84;5053937;28;20048;-62
2022/07/28 10:10:59;;;;;;;5.28;2.45;;;;;;;18.03;54.78;99971.19;5068050;28;20060;-61
2022/07/28 10:14:12;;;;;;;15.77;2.20;;;;;;;18.05;55.08;99970.28;5054517;28;20134;-60
2022/07/28 10:17:00;;;;;;;6.63;2.03;;;;;;;18.06;54.61;99964.13;5067996;28;20043;-61
2022/07/28 10:19:44;;;;;;;6.20;1.90;;;;;;;18.07;54.70;99962.41;5053782;28;20106;-60
2022/07/28 10:22:33;;;;;;;9.05;2.55;;;;;;;18.09;54.68;99971.09;5054623;28;20048;-62
2022/07/28 10:25:21;;;;;;;6.13;1.90;;;;;;;18.10;54.25;99971.06;5067763;28;20076;-63
2022/07/28 10:28:10;;;;;;;10.55;2.80;;;;;;;18.11;54.00;99966.69;5053301;28;20044;-62
2022/07/28 10:31:02;;;;;;;5.18;2.25;;;;;;;18.11;54.58;99964.09;5053347;28;20064;-62
2022/07/28 10:33:52;;;;;;;3.75;1.63;;;;;;;18.12;54.44;99957.94;5052814;28;20094;-61
2022/07/28 10:36:36;;;;;;;7.00;1.80;;;;;;;18.14;54.50;99964.00;5053477;28;20114;-63
2022/07/28 10:39:27;;;;;;;6.28;2.03;;;;;;;18.17;54.25;99956.09;5054300;28;20110;-62
2022/07/28 10:42:13;;;;;;;12.25;2.58;;;;;;;18.20;54.37;99955.19;5054139;28;20052;-62
2022/07/28 10:44:58;;;;;;;7.30;2.72;;;;;;;18.21;54.34;99955.16;5067031;28;20134;-62
2022/07/28 10:47:44;;;;;;;4.43;2.08;;;;;;;18.21;54.03;99952.53;5054050;28;20400;-62
2022/07/28 10:50:29;;;;;;;4.70;2.20;;;;;;;18.22;54.28;99951.66;5053246;28;20097;-61
2022/07/28 10:53:32;;;;;;;11.32;2.95;;;;;;;18.26;54.24;99944.59;5053229;28;20048;-62
2022/07/28 10:56:40;;;;;;;19.30;2.80;;;;;;;18.27;54.12;99941.06;5054004;28;20114;-63
2022/07/28 10:59:42;;;;;;;9.18;1.85;;;;;;;18.27;53.99;99954.19;5067684;28;20063;-61
2022/07/28 11:02:49;;;;;;;4.18;2.05;;;;;;;18.27;54.18;99943.69;5053491;28;20102;-61
2022/07/28 11:05:33;;;;;;;5.43;2.45;;;;;;;18.27;53.93;99941.06;5053638;28;20059;-61
2022/07/28 11:08:20;;;;;;;5.93;1.70;;;;;;;18.29;54.03;99939.28;5053648;28;20099;-61
2022/07/28 11:11:04;;;;;;;6.18;2.33;;;;;;;18.30;53.80;99935.78;5053492;28;20460;-61
2022/07/28 11:13:48;;;;;;;2.38;1.52;;;;;;;18.31;53.73;99928.75;5053314;28;20187;-61
2022/07/28 11:16:35;;;;;;;6.63;1.85;;;;;;;18.30;53.76;99927.91;5053660;28;20040;-61
2022/07/28 11:19:19;;;;;;;11.80;2.22;;;;;;;18.32;53.92;99920.00;5053442;28;20052;-61
2022/07/28 11:22:20;;;;;;;8.02;2.92;;;;;;;18.32;53.82;99920.88;5053474;28;20059;-61
2022/07/28 11:25:06;;;;;;;6.15;2.45;;;;;;;18.33;53.68;99916.47;5066553;28;20110;-61
2022/07/28 11:27:53;;;;;;;12.75;2.63;;;;;;;18.34;53.86;99910.34;5066705;28;20048;-61
2022/07/28 11:30:46;;;;;;;4.85;2.50;;;;;;;18.33;53.76;99920.00;5066779;28;20056;-61
2022/07/28 11:33:53;;;;;;;6.95;2.05;;;;;;;18.34;53.45;99923.47;5066504;28;20083;-61
2022/07/28 11:37:01;;;;;;;9.20;2.85;;;;;;;18.35;53.78;99914.69;5053357;28;20055;-61
2022/07/28 11:39:45;;;;;;;6.75;2.20;;;;;;;18.35;53.76;99922.56;5053273;28;20052;-63
2022/07/28 11:42:31;;;;;;;14.48;2.42;;;;;;;18.37;53.39;99916.41;5052275;28;20102;-61
2022/07/28 11:45:25;;;;;;;4.93;2.00;;;;;;;18.38;53.83;99907.63;5069240;28;20545;-61
2022/07/28 11:48:16;;;;;;;6.33;2.37;;;;;;;18.42;53.49;99908.47;5057251;28;20118;-61
2022/07/28 11:51:04;;;;;;;5.50;1.90;;;;;;;18.43;53.45;99904.94;5070707;28;20446;-61
2022/07/28 11:53:52;;;;;;;4.45;1.95;;;;;;;18.45;53.26;99900.50;5057530;28;20047;-60
2022/07/28 11:56:36;;;;;;;5.00;2.35;;;;;;;18.46;53.37;99897.00;5056511;28;20063;-61
2022/07/28 11:59:23;;;;;;;5.97;2.05;;;;;;;18.48;53.28;99899.59;5057373;28;20056;-61
2022/07/28 12:02:07;;;;;;;4.97;2.00;;;;;;;18.47;53.32;99906.59;5056393;28;20079;-62
2022/07/28 12:04:57;;;;;;;7.88;2.75;;;;;;;18.50;53.23;99900.44;5056554;28;20129;-61
2022/07/28 12:07:45;;;;;;;13.23;2.30;;;;;;;18.50;53.17;99903.06;5070460;28;20102;-61
2022/07/28 12:10:34;;;;;;;4.13;2.63;;;;;;;18.51;53.15;99899.56;5070889;28;20504;-61
2022/07/28 12:13:25;;;;;;;7.18;1.92;;;;;;;18.51;53.02;99899.56;5056808;28;20515;-61
2022/07/28 12:16:12;;;;;;;6.22;2.28;;;;;;;18.50;52.91;99900.44;5056176;28;20056;-61
2022/07/28 12:18:59;;;;;;;6.60;2.20;;;;;;;18.51;53.14;99896.94;5056122;28;20048;-60
2022/07/28 12:21:50;;;;;;;5.78;2.00;;;;;;;18.51;53.23;99896.94;5055884;28;20102;-62
2022/07/28 12:24:34;;;;;;;5.22;2.35;;;;;;;18.53;53.06;99903.03;5056028;28;20538;-61
2022/07/28 12:27:25;;;;;;;4.18;2.15;;;;;;;18.52;53.10;99896.88;5070294;28;20055;-61
2022/07/28 12:30:22;;;;;;;4.28;2.05;;;;;;;18.53;53.31;99896.00;5070156;28;20052;-61
2022/07/28 12:33:24;;;;;;;8.20;2.40;;;;;;;18.54;53.10;99892.47;5055829;28;20040;-61
2022/07/28 12:36:11;;;;;;;6.10;1.83;;;;;;;18.54;52.86;99892.47;5069597;28;20060;-61
2022/07/28 12:38:58;;;;;;;4.32;2.17;;;;;;;18.54;52.97;99887.22;5069875;28;20110;-61
2022/07/28 12:41:43;;;;;;;8.95;1.90;;;;;;;18.55;53.05;99883.72;5069467;28;20048;-60
2022/07/28 12:44:39;;;;;;;4.20;2.28;;;;;;;18.54;52.92;99881.97;5056452;28;20518;-61
2022/07/28 12:47:27;;;;;;;9.65;2.35;;;;;;;18.55;53.05;99894.22;5056502;28;20048;-61
2022/07/28 12:50:16;;;;;;;5.72;2.03;;;;;;;18.56;52.83;99885.44;5055422;28;20090;-61
2022/07/28 12:53:06;;;;;;;5.97;2.33;;;;;;;18.58;52.97;99887.19;5055471;28;20078;-62
2022/07/28 12:55:59;;;;;;;7.55;2.50;;;;;;;18.59;52.77;99886.28;5055442;28;20114;-61
2022/07/28 12:58:44;;;;;;;5.13;1.83;;;;;;;18.59;52.94;99876.63;5055149;28;20110;-61
2022/07/28 13:01:55;;;;;;;7.82;3.13;;;;;;;18.61;52.94;99877.47;5054951;28;20046;-60
2022/07/28 13:04:48;;;;;;;5.75;2.58;;;;;;;18.62;52.86;99873.97;5056153;28;20514;-61
2022/07/28 13:07:32;;;;;;;7.57;2.95;;;;;;;18.63;52.96;99880.94;5055024;28;20052;-63
2022/07/28 13:10:16;;;;;;;5.25;1.90;;;;;;;18.68;52.91;99883.47;5054865;28;20044;-60